Time;durP1;ratioP1;P1;durP2;ratioP2;P2;SDS_P1;SDS_P2;PMS_P1;PMS_P2;Temp;Humidity;BMP_temperature;BMP_pressure;BME280_temperature;BME280_humidity;BME280_pressure;Samples;Min_cycle;Max_cycle;Signal;HPM_P1;HPM_P2
2021/07/17 00:02:00;;;;;;;20.63;6.72;;;;;;;23.09;81.72;96895.81;5014534;28;20028;-78
2021/07/17 00:04:27;;;;;;;11.55;6.55;;;;;;;23.02;82.07;96888.56;5027533;28;20026;-80
2021/07/17 00:06:53;;;;;;;10.52;5.90;;;;;;;23.00;82.36;96875.13;4978754;28;20528;-79
2021/07/17 00:09:18;;;;;;;16.15;6.68;;;;;;;22.92;82.74;96883.38;4994809;28;20049;-79
2021/07/17 00:11:44;;;;;;;15.02;7.22;;;;;;;22.91;82.57;96880.88;5012189;28;20030;-79
2021/07/17 00:14:10;;;;;;;9.38;6.43;;;;;;;22.97;82.42;96886.41;5002808;28;20120;-78
2021/07/17 00:16:36;;;;;;;7.80;6.78;;;;;;;22.84;83.21;96886.22;4978390;28;20118;-79
2021/07/17 00:19:02;;;;;;;15.10;6.18;;;;;;;22.83;83.37;96894.56;5011891;28;20477;-79
2021/07/17 00:21:28;;;;;;;8.25;6.43;;;;;;;22.74;84.29;96890.25;4978276;28;20030;-79
2021/07/17 00:23:53;;;;;;;13.98;6.40;;;;;;;22.73;84.72;96892.16;4994495;28;20098;-79
2021/07/17 00:26:19;;;;;;;13.52;6.63;;;;;;;22.71;84.62;96886.00;4994238;28;20176;-79
2021/07/17 00:28:45;;;;;;;12.10;6.47;;;;;;;22.73;84.67;96885.84;5012224;28;20025;-79
2021/07/17 00:31:10;;;;;;;11.27;6.32;;;;;;;22.70;84.97;96876.16;5021541;28;20057;-79
2021/07/17 00:33:36;;;;;;;11.07;6.72;;;;;;;22.72;84.92;96886.88;5014098;28;20048;-79
2021/07/17 00:36:02;;;;;;;12.75;5.57;;;;;;;22.70;85.65;96887.06;5013850;28;20055;-79
2021/07/17 00:38:28;;;;;;;10.35;6.38;;;;;;;22.65;85.21;96886.75;5031546;28;20029;-79
2021/07/17 00:40:53;;;;;;;13.77;6.38;;;;;;;22.48;85.40;96885.22;5013727;28;20065;-79
2021/07/17 00:43:19;;;;;;;8.82;6.60;;;;;;;22.47;85.48;96888.97;5011466;28;20041;-79
2021/07/17 00:45:44;;;;;;;10.32;6.45;;;;;;;22.39;85.99;96894.50;5011884;28;20052;-80
2021/07/17 00:48:10;;;;;;;14.30;7.07;;;;;;;22.35;86.72;96885.84;5002036;28;20029;-79
2021/07/17 00:50:35;;;;;;;13.98;7.05;;;;;;;22.35;87.07;96887.72;4994230;28;20482;-79
2021/07/17 00:53:02;;;;;;;9.32;7.18;;;;;;;22.24;88.47;96894.44;5011783;28;20099;-79
2021/07/17 00:55:28;;;;;;;16.27;7.53;;;;;;;22.24;88.87;96888.97;4993822;28;20025;-79
2021/07/17 00:57:55;;;;;;;11.00;7.57;;;;;;;22.15;89.73;96880.03;4994216;28;20029;-79
2021/07/17 01:00:21;;;;;;;16.20;6.47;;;;;;;22.24;89.97;96882.72;4992585;28;20034;-79
2021/07/17 01:02:52;;;;;;;32.45;8.13;;;;;;;22.18;89.98;96880.72;4993898;28;20382;-79
2021/07/17 01:05:19;;;;;;;14.35;6.32;;;;;;;22.17;88.33;96877.16;4993821;28;20378;-79
2021/07/17 01:07:45;;;;;;;13.98;6.75;;;;;;;22.07;88.28;96882.00;4977636;28;20021;-79
2021/07/17 01:10:11;;;;;;;12.05;6.93;;;;;;;21.91;89.32;96873.94;4993760;28;20478;-78
2021/07/17 01:12:37;;;;;;;14.60;6.70;;;;;;;21.84;89.88;96875.69;5011455;28;20022;-79
2021/07/17 01:15:04;;;;;;;13.82;6.47;;;;;;;21.77;89.99;96870.09;5011307;28;20531;-79
2021/07/17 01:17:29;;;;;;;10.50;7.32;;;;;;;21.73;90.09;96871.50;5013935;28;20501;-79
2021/07/17 01:19:55;;;;;;;8.35;6.60;;;;;;;21.71;89.90;96868.13;5013568;28;20109;-79
2021/07/17 01:22:21;;;;;;;15.65;6.68;;;;;;;21.69;89.77;96869.31;5011718;28;20485;-79
2021/07/17 01:24:46;;;;;;;12.85;6.63;;;;;;;21.66;89.86;96873.22;5011271;28;20103;-79
2021/07/17 01:27:17;;;;;;;10.95;7.00;;;;;;;21.63;89.88;96866.28;4993621;28;20382;-78
2021/07/17 01:29:43;;;;;;;9.77;6.20;;;;;;;21.52;90.14;96847.66;5011244;28;20026;-79
2021/07/17 01:32:09;;;;;;;12.85;6.80;;;;;;;21.54;90.34;96859.19;4993773;28;20518;-79
2021/07/17 01:34:35;;;;;;;9.43;6.28;;;;;;;21.50;91.10;96852.41;4993218;28;20030;-79
2021/07/17 01:37:01;;;;;;;11.10;6.78;;;;;;;21.50;91.00;96857.84;5008377;28;20508;-79
2021/07/17 01:39:26;;;;;;;12.25;6.38;;;;;;;21.49;90.83;96852.59;5013252;28;20065;-79
2021/07/17 01:41:52;;;;;;;10.93;6.90;;;;;;;21.48;91.28;96864.50;5013408;28;20060;-79
2021/07/17 01:44:17;;;;;;;14.68;7.38;;;;;;;21.43;91.91;96866.94;5013067;28;20037;-79
2021/07/17 01:46:44;;;;;;;12.15;6.97;;;;;;;21.36;93.20;96855.06;5018437;28;20025;-79
2021/07/17 01:49:10;;;;;;;13.82;7.65;;;;;;;21.28;95.11;96861.41;4993713;28;20022;-79
2021/07/17 01:51:35;;;;;;;13.75;7.00;;;;;;;21.24;96.28;96867.38;4993294;28;20382;-79
2021/07/17 01:54:01;;;;;;;13.55;7.60;;;;;;;21.14;97.00;96856.69;4993626;28;20434;-78
2021/07/17 01:56:27;;;;;;;8.75;7.55;;;;;;;21.13;97.67;96859.59;4993464;28;20022;-79
2021/07/17 01:58:56;;;;;;;13.25;7.97;;;;;;;21.07;98.21;96870.13;4987250;28;20030;-78
2021/07/17 02:01:24;;;;;;;13.32;7.00;;;;;;;21.04;98.18;96867.75;5009644;28;20021;-78
2021/07/17 02:03:50;;;;;;;10.70;8.20;;;;;;;20.99;98.98;96866.59;5001760;28;20033;-79
2021/07/17 02:06:27;;;;;;;12.15;7.57;;;;;;;20.96;98.69;96872.38;5001491;28;20009;-78
2021/07/17 02:08:53;;;;;;;10.35;7.22;;;;;;;20.91;98.45;96869.34;5012950;28;20025;-78
2021/07/17 02:11:19;;;;;;;12.82;8.20;;;;;;;20.89;99.21;96864.06;5004514;28;20033;-78
2021/07/17 02:13:50;;;;;;;14.48;7.82;;;;;;;20.89;99.04;96861.34;4993346;28;20045;-78
2021/07/17 02:16:16;;;;;;;8.33;6.77;;;;;;;20.77;98.55;96859.19;4993327;28;20076;-78
2021/07/17 02:18:43;;;;;;;13.35;7.60;;;;;;;20.73;98.85;96866.03;5001084;28;20038;-78
2021/07/17 02:21:09;;;;;;;10.40;7.40;;;;;;;20.66;99.35;96865.88;4993472;28;20440;-78
2021/07/17 02:23:36;;;;;;;12.75;7.25;;;;;;;20.61;100.00;96856.53;4993144;28;20026;-78
2021/07/17 02:26:03;;;;;;;13.93;7.82;;;;;;;20.62;100.00;96856.34;4993588;28;20021;-79
2021/07/17 02:28:29;;;;;;;15.30;8.13;;;;;;;20.48;100.00;96849.78;4996587;28;20045;-78
2021/07/17 02:30:54;;;;;;;17.13;7.63;;;;;;;20.52;100.00;96842.09;5014277;28;20030;-78
2021/07/17 02:33:20;;;;;;;13.15;8.00;;;;;;;20.54;100.00;96845.53;5013849;28;20096;-77
2021/07/17 02:35:46;;;;;;;10.45;7.97;;;;;;;20.57;100.00;96850.59;4991930;28;20091;-79
2021/07/17 02:38:12;;;;;;;13.20;7.95;;;;;;;20.51;100.00;96843.16;5016180;28;20045;-78
2021/07/17 02:40:38;;;;;;;14.07;8.23;;;;;;;20.48;100.00;96840.78;4999485;28;20068;-78
2021/07/17 02:43:04;;;;;;;11.93;8.50;;;;;;;20.48;100.00;96843.50;5033854;28;20068;-78
2021/07/17 02:45:30;;;;;;;16.15;7.90;;;;;;;20.49;100.00;96846.03;5014861;28;20025;-79
2021/07/17 02:47:55;;;;;;;11.70;8.15;;;;;;;20.41;100.00;96839.78;4996633;28;20397;-79
2021/07/17 02:50:21;;;;;;;18.00;8.40;;;;;;;20.34;100.00;96836.88;4996705;28;20152;-78
2021/07/17 02:52:46;;;;;;;21.63;9.20;;;;;;;20.28;100.00;96831.28;5007896;28;20036;-78
2021/07/17 02:55:12;;;;;;;16.08;8.93;;;;;;;20.30;100.00;96837.44;5033575;28;20033;-78
2021/07/17 02:57:38;;;;;;;16.65;7.85;;;;;;;20.30;100.00;96829.28;5015633;28;20067;-78
2021/07/17 03:00:07;;;;;;;32.55;9.18;;;;;;;20.23;100.00;96830.94;4999403;28;20037;-78
2021/07/17 03:02:32;;;;;;;15.57;8.40;;;;;;;20.23;100.00;96829.09;5015265;28;20038;-78
2021/07/17 03:04:58;;;;;;;13.32;9.40;;;;;;;20.27;100.00;96837.78;5028902;28;20164;-79
2021/07/17 03:07:23;;;;;;;22.02;9.68;;;;;;;20.28;100.00;96837.59;4996068;28;20033;-78
2021/07/17 03:09:49;;;;;;;14.43;8.90;;;;;;;20.31;100.00;96833.66;5013336;28;20022;-78
2021/07/17 03:12:14;;;;;;;11.90;8.80;;;;;;;20.32;100.00;96833.50;5013458;28;20030;-79
2021/07/17 03:14:40;;;;;;;15.77;8.88;;;;;;;20.40;100.00;96843.50;5013212;28;20037;-78
2021/07/17 03:17:06;;;;;;;18.92;8.70;;;;;;;20.44;100.00;96837.56;4995789;28;20030;-78
2021/07/17 03:19:31;;;;;;;13.05;7.88;;;;;;;20.42;100.00;96844.19;4995767;28;20053;-79
2021/07/17 03:21:57;;;;;;;19.40;8.90;;;;;;;20.46;100.00;96846.38;5025620;28;20029;-78
2021/07/17 03:24:22;;;;;;;14.38;8.43;;;;;;;20.56;100.00;96843.47;5033021;28;20035;-79
2021/07/17 03:26:48;;;;;;;17.05;8.65;;;;;;;20.63;100.00;96841.75;5021778;28;20470;-78
2021/07/17 03:29:13;;;;;;;14.73;8.27;;;;;;;20.66;100.00;96841.41;5013109;28;20095;-79
2021/07/17 03:31:39;;;;;;;17.27;8.23;;;;;;;20.72;100.00;96834.41;5012792;28;20044;-79
2021/07/17 03:34:05;;;;;;;11.55;8.23;;;;;;;20.77;100.00;96837.44;4995476;28;20034;-78
2021/07/17 03:36:30;;;;;;;14.10;9.13;;;;;;;20.81;100.00;96847.81;5004138;28;20034;-78
2021/07/17 03:38:56;;;;;;;17.13;9.45;;;;;;;20.83;100.00;96837.59;5014236;28;20112;-79
2021/07/17 03:41:22;;;;;;;20.15;9.20;;;;;;;20.88;100.00;96837.06;4998618;28;20037;-79
2021/07/17 03:43:49;;;;;;;12.88;8.05;;;;;;;20.81;100.00;96842.38;4998624;28;20077;-79
2021/07/17 03:46:15;;;;;;;19.42;8.77;;;;;;;20.86;100.00;96839.97;5032547;28;20512;-78
2021/07/17 03:48:40;;;;;;;21.02;10.18;;;;;;;20.87;100.00;96848.97;5014684;28;20037;-79
2021/07/17 03:51:06;;;;;;;14.27;9.00;;;;;;;20.94;99.47;96850.81;5014732;28;20087;-79
2021/07/17 03:53:32;;;;;;;19.50;9.80;;;;;;;20.88;99.57;96851.53;4998379;28;20083;-79
2021/07/17 03:55:58;;;;;;;18.55;10.13;;;;;;;20.89;99.33;96855.91;5014625;28;20108;-79
2021/07/17 03:58:24;;;;;;;18.85;9.75;;;;;;;20.90;98.95;96854.91;5007715;28;20116;-79
2021/07/17 04:00:50;;;;;;;15.57;9.90;;;;;;;20.79;99.89;96849.88;4994801;28;20104;-79
2021/07/17 04:03:15;;;;;;;17.58;10.65;;;;;;;20.76;100.00;96844.78;5026411;28;20025;-79
2021/07/17 04:05:41;;;;;;;21.45;10.40;;;;;;;20.69;100.00;96854.66;4997004;28;20108;-78
2021/07/17 04:08:07;;;;;;;20.08;9.95;;;;;;;20.80;100.00;96864.28;4995061;28;20097;-79
2021/07/17 04:10:33;;;;;;;16.98;9.98;;;;;;;20.86;100.00;96858.13;4995241;28;20037;-79
2021/07/17 04:12:59;;;;;;;16.52;9.20;;;;;;;20.88;99.70;96859.69;5002844;28;20026;-79
2021/07/17 04:15:24;;;;;;;17.40;10.00;;;;;;;20.92;99.27;96861.00;4994815;28;20472;-79
2021/07/17 04:17:50;;;;;;;14.18;9.77;;;;;;;20.91;99.30;96853.91;5013765;28;20048;-78
2021/07/17 04:20:16;;;;;;;12.57;10.48;;;;;;;20.86;100.00;96853.56;4997871;28;20105;-79
2021/07/17 04:22:41;;;;;;;14.82;11.45;;;;;;;20.80;100.00;96846.09;5014140;28;20076;-79
2021/07/17 04:25:08;;;;;;;13.85;10.00;;;;;;;20.86;100.00;96849.97;5014400;28;20057;-77
2021/07/17 04:27:34;;;;;;;16.95;10.00;;;;;;;21.02;100.00;96858.94;4998426;28;20034;-78
2021/07/17 04:30:00;;;;;;;13.20;9.63;;;;;;;21.06;100.00;96843.13;4997296;28;20105;-77
2021/07/17 04:32:25;;;;;;;13.15;9.50;;;;;;;21.13;99.50;96849.59;4997609;28;20034;-79
2021/07/17 04:34:51;;;;;;;17.30;9.30;;;;;;;21.25;98.61;96841.88;4997310;28;20025;-78
2021/07/17 04:37:18;;;;;;;16.50;10.00;;;;;;;21.44;97.24;96846.84;5000756;28;20025;-78
2021/07/17 04:39:44;;;;;;;13.32;9.93;;;;;;;21.58;96.03;96849.66;5011712;28;20033;-78
2021/07/17 04:42:10;;;;;;;15.50;9.15;;;;;;;21.76;94.70;96845.78;4998562;28;20025;-78
2021/07/17 04:44:36;;;;;;;22.90;9.20;;;;;;;22.04;92.96;96838.78;5013854;28;20033;-78
2021/07/17 04:47:02;;;;;;;17.70;10.23;;;;;;;22.47;89.64;96848.94;5013655;28;20766;-78
2021/07/17 04:49:28;;;;;;;15.68;8.52;;;;;;;22.55;88.30;96842.53;5006957;28;20124;-77
2021/07/17 04:51:53;;;;;;;22.48;9.38;;;;;;;22.71;88.26;96847.84;4994800;28;20139;-90
2021/07/17 04:54:19;;;;;;;26.80;17.50;;;;;;;22.76;87.40;96850.88;4997921;28;20164;-79
2021/07/17 04:56:44;;;;;;;13.50;8.55;;;;;;;22.76;87.37;96848.13;4994079;28;20452;-79
2021/07/17 04:59:10;;;;;;;17.98;9.93;;;;;;;22.83;87.05;96846.34;5011472;28;20493;-82
2021/07/17 05:01:35;;;;;;;10.90;9.05;;;;;;;22.99;86.17;96846.16;4978420;28;20030;-85
2021/07/17 05:04:01;;;;;;;15.38;10.15;;;;;;;23.42;84.24;96846.28;4994651;28;20029;-84
2021/07/17 05:06:26;;;;;;;16.40;10.10;;;;;;;24.83;77.00;96853.53;4994259;28;20040;-85
2021/07/17 05:08:52;;;;;;;30.83;8.45;;;;;;;26.75;66.23;96853.91;5003831;28;20025;-84
2021/07/17 05:11:17;;;;;;;13.38;7.53;;;;;;;28.15;60.17;96871.38;5001330;28;20030;-86
2021/07/17 05:13:43;;;;;;;17.30;6.80;;;;;;;28.70;57.15;96874.41;5010526;28;20029;-84
2021/07/17 05:16:09;;;;;;;12.95;8.88;;;;;;;29.22;54.85;96879.41;4993981;28;20052;-85
2021/07/17 05:18:34;;;;;;;21.08;8.10;;;;;;;29.77;53.33;96862.88;4992722;28;20046;-87
2021/07/17 05:21:00;;;;;;;28.58;8.80;;;;;;;30.81;50.34;96873.44;4997810;28;20101;-86
2021/07/17 05:23:26;;;;;;;26.60;13.00;;;;;;;30.72;49.84;96874.88;5014226;28;20025;-85
2021/07/17 05:25:51;;;;;;;18.00;8.50;;;;;;;30.64;50.26;96871.38;5013532;28;20032;-83
2021/07/17 05:28:18;;;;;;;16.42;10.57;;;;;;;31.79;47.13;96876.28;5031908;28;20036;-84
2021/07/17 05:30:44;;;;;;;13.07;8.60;;;;;;;32.52;44.63;96876.34;4997419;28;20417;-83
2021/07/17 05:33:10;;;;;;;17.48;7.32;;;;;;;33.51;42.92;96880.22;4997683;28;20090;-84
2021/07/17 05:35:36;;;;;;;26.67;7.25;;;;;;;34.40;40.88;96870.56;4999310;28;20026;-85
2021/07/17 05:38:02;;;;;;;13.32;6.80;;;;;;;35.45;39.32;96863.41;5011396;28;20032;-84
2021/07/17 05:40:27;;;;;;;17.45;7.38;;;;;;;35.74;37.53;96861.94;5007583;28;20409;-84
2021/07/17 05:42:53;;;;;;;27.33;7.50;;;;;;;36.54;36.60;96874.53;4996928;28;20041;-84
2021/07/17 05:45:18;;;;;;;13.23;8.00;;;;;;;37.49;34.74;96870.94;5013672;28;20133;-86
2021/07/17 05:47:44;;;;;;;16.40;9.45;;;;;;;37.53;34.08;96869.25;4996648;28;20022;-84
2021/07/17 05:50:10;;;;;;;11.30;6.63;;;;;;;37.54;33.99;96868.13;4996722;28;20040;-84
2021/07/17 05:52:35;;;;;;;9.80;6.40;;;;;;;37.35;34.50;96867.00;5013157;28;20025;-84
2021/07/17 05:55:02;;;;;;;13.32;6.45;;;;;;;36.54;35.07;96867.00;5013327;28;20100;-84
2021/07/17 05:57:27;;;;;;;11.95;6.38;;;;;;;36.91;35.18;96872.31;4996579;28;20025;-83
2021/07/17 05:59:53;;;;;;;19.63;6.72;;;;;;;37.95;33.58;96872.50;4996449;28;20378;-83
2021/07/17 06:02:18;;;;;;;10.82;6.20;;;;;;;37.46;33.76;96879.88;4995850;28;20371;-83
2021/07/17 06:04:45;;;;;;;11.65;5.88;;;;;;;38.22;32.74;96872.09;4997350;28;20048;-83
2021/07/17 06:07:10;;;;;;;17.73;6.68;;;;;;;39.27;31.43;96866.94;5007670;28;20032;-84
2021/07/17 06:09:36;;;;;;;11.13;6.50;;;;;;;38.29;32.65;96863.38;5016802;28;20408;-83
2021/07/17 06:12:02;;;;;;;12.63;6.18;;;;;;;38.40;32.09;96873.41;4998952;28;20397;-83
2021/07/17 06:14:27;;;;;;;11.20;5.95;;;;;;;37.62;32.97;96878.72;4980523;28;20457;-83
2021/07/17 06:16:53;;;;;;;29.75;6.50;;;;;;;37.42;33.35;96875.94;4996896;28;20094;-84
2021/07/17 06:19:18;;;;;;;15.88;6.90;;;;;;;38.57;31.59;96868.28;5008238;28;20619;-84
2021/07/17 06:21:44;;;;;;;27.20;6.55;;;;;;;38.27;32.11;96868.44;5009938;28;20026;-84
2021/07/17 06:24:10;;;;;;;30.98;6.95;;;;;;;37.60;32.70;96869.78;5016831;28;20396;-84
2021/07/17 06:26:35;;;;;;;46.38;7.68;;;;;;;38.88;31.29;96866.97;5016339;28;20032;-84
2021/07/17 06:29:01;;;;;;;12.43;6.78;;;;;;;39.68;29.83;96860.94;4999685;28;20021;-83
2021/07/17 06:31:26;;;;;;;8.38;6.30;;;;;;;39.00;30.76;96855.41;5008317;28;20024;-84
2021/07/17 06:33:52;;;;;;;17.80;5.78;;;;;;;39.39;30.13;96863.72;4999808;28;20039;-84
2021/07/17 06:36:18;;;;;;;10.90;6.03;;;;;;;38.49;31.35;96849.31;5033690;28;20119;-84
2021/07/17 06:38:45;;;;;;;15.35;6.47;;;;;;;39.45;30.21;96851.34;5016365;28;20037;-85
2021/07/17 06:41:11;;;;;;;16.77;5.50;;;;;;;38.94;30.53;96851.81;4981922;28;20473;-84
2021/07/17 06:43:36;;;;;;;10.77;6.15;;;;;;;38.96;30.64;96843.09;4990113;28;20484;-84
2021/07/17 06:46:03;;;;;;;16.40;6.70;;;;;;;39.87;29.24;96842.22;5013232;28;20079;-83
2021/07/17 06:48:29;;;;;;;12.43;6.22;;;;;;;40.86;28.63;96838.31;5015913;28;20033;-84
2021/07/17 06:50:55;;;;;;;13.07;7.07;;;;;;;41.05;27.49;96833.53;5016069;28;20044;-84
2021/07/17 06:53:21;;;;;;;10.43;6.30;;;;;;;41.03;28.06;96835.81;5015766;28;20029;-85
2021/07/17 06:55:47;;;;;;;21.75;7.68;;;;;;;40.96;27.68;96826.94;4999720;28;20094;-87
2021/07/17 06:58:13;;;;;;;38.78;26.55;;;;;;;40.90;28.48;96830.13;5015836;28;20432;-85
2021/07/17 07:00:38;;;;;;;17.08;6.93;;;;;;;40.39;28.82;96821.66;5003004;28;20401;-86
2021/07/17 07:03:04;;;;;;;15.45;5.50;;;;;;;39.54;29.40;96821.56;5030373;28;20029;-84
2021/07/17 07:05:30;;;;;;;17.77;6.38;;;;;;;38.61;30.81;96819.00;4999386;28;20029;-85
2021/07/17 07:07:56;;;;;;;15.18;6.38;;;;;;;38.92;31.27;96814.88;5015623;28;20026;-85
2021/07/17 07:10:21;;;;;;;20.45;7.00;;;;;;;40.40;28.84;96809.28;5004691;28;20038;-85
2021/07/17 07:12:47;;;;;;;15.30;6.70;;;;;;;40.58;29.05;96819.69;4995937;28;20041;-84
2021/07/17 07:15:13;;;;;;;29.52;6.70;;;;;;;41.61;27.31;96819.31;4987618;28;20038;-84
2021/07/17 07:17:40;;;;;;;11.35;6.10;;;;;;;41.78;27.57;96827.16;4979511;28;20196;-85
2021/07/17 07:20:12;;;;;;;13.93;6.22;;;;;;;41.90;26.91;96812.59;4995809;28;20063;-84
2021/07/17 07:22:39;;;;;;;21.33;5.82;;;;;;;41.97;26.57;96807.34;5013707;28;20103;-84
2021/07/17 07:25:06;;;;;;;11.25;5.75;;;;;;;42.63;25.65;96816.03;4987543;28;20029;-83
2021/07/17 07:27:32;;;;;;;14.65;5.93;;;;;;;42.05;26.42;96815.06;4979810;28;20018;-86
2021/07/17 07:29:58;;;;;;;10.10;5.45;;;;;;;41.86;26.43;96805.91;4996009;28;20101;-86
2021/07/17 07:32:24;;;;;;;11.40;5.70;;;;;;;41.70;26.89;96810.16;5003994;28;20069;-86
2021/07/17 07:37:33;;;;;;;12.80;4.93;;;;;;;41.57;26.92;96804.22;5017139;28;20029;-86
2021/07/17 07:39:59;;;;;;;10.60;5.80;;;;;;;41.63;26.92;96819.81;5015420;28;20447;-86
2021/07/17 07:42:25;;;;;;;29.90;17.30;;;;;;;41.28;26.76;96805.63;5015080;28;20401;-86
2021/07/17 07:44:51;;;;;;;16.35;8.77;;;;;;;39.90;28.57;96806.00;5015481;28;20033;-86
2021/07/17 07:47:18;;;;;;;14.85;5.30;;;;;;;39.60;29.16;96816.72;4997693;28;20029;-86
2021/07/17 07:49:44;;;;;;;17.67;5.50;;;;;;;40.78;28.59;96827.78;4995803;28;20021;-86
2021/07/17 07:52:10;;;;;;;15.32;6.10;;;;;;;40.47;28.25;96809.72;5003572;28;20507;-85
2021/07/17 07:54:36;;;;;;;17.10;5.82;;;;;;;41.71;26.72;96814.63;4998766;28;20029;-86
2021/07/17 07:57:02;;;;;;;7.95;4.85;;;;;;;42.70;25.10;96804.34;5014871;28;20386;-86
2021/07/17 07:59:28;;;;;;;12.50;5.38;;;;;;;42.10;25.68;96800.88;5014779;28;20030;-86
2021/07/17 08:01:53;;;;;;;8.15;4.95;;;;;;;42.56;25.16;96815.59;5000777;28;20049;-86
2021/07/17 08:04:19;;;;;;;16.30;5.78;;;;;;;42.66;24.92;96809.78;4995602;28;20112;-86
2021/07/17 08:06:45;;;;;;;14.60;4.95;;;;;;;42.77;25.02;96815.97;4995207;28;20470;-85
2021/07/17 08:09:10;;;;;;;26.20;5.90;;;;;;;42.62;25.26;96808.75;4994908;28;20029;-85
2021/07/17 08:11:36;;;;;;;23.98;5.18;;;;;;;41.88;26.33;96804.47;4994882;28;20052;-86
2021/07/17 08:14:01;;;;;;;16.10;5.30;;;;;;;42.76;25.57;96808.69;5009943;28;20018;-86
2021/07/17 08:16:27;;;;;;;16.35;5.07;;;;;;;42.19;25.95;96801.84;4986667;28;20034;-86
2021/07/17 08:18:52;;;;;;;15.82;5.55;;;;;;;42.78;25.43;96802.72;4986516;28;20132;-85
2021/07/17 08:21:18;;;;;;;12.95;5.22;;;;;;;43.72;24.79;96795.72;4978653;28;20460;-84
2021/07/17 08:23:45;;;;;;;10.93;4.85;;;;;;;43.69;24.40;96799.19;4994229;28;20072;-85
2021/07/17 08:26:11;;;;;;;20.85;5.75;;;;;;;44.07;24.12;96791.03;4978647;28;20485;-86
2021/07/17 08:28:37;;;;;;;12.10;4.70;;;;;;;43.45;24.72;96793.13;4994636;28;20504;-86
2021/07/17 08:31:02;;;;;;;9.10;4.50;;;;;;;42.12;25.29;96776.94;4990414;28;20025;-86
2021/07/17 08:33:28;;;;;;;13.02;4.40;;;;;;;41.86;25.83;96784.28;4978477;28;20038;-86
2021/07/17 08:35:54;;;;;;;12.48;5.30;;;;;;;42.39;25.61;96770.44;4994706;28;20026;-86
2021/07/17 08:38:19;;;;;;;22.23;5.30;;;;;;;40.99;27.04;96774.97;4994377;28;20108;-85
2021/07/17 08:40:53;;;;;;;10.60;5.10;;;;;;;42.73;24.80;96774.72;4994435;28;20434;-86
2021/07/17 08:43:19;;;;;;;8.55;5.03;;;;;;;42.99;24.01;96773.78;4994436;28;20029;-86
2021/07/17 08:45:45;;;;;;;14.85;5.78;;;;;;;43.77;23.86;96774.22;4994541;28;20022;-85
2021/07/17 08:48:11;;;;;;;17.48;4.82;;;;;;;42.49;25.05;96773.00;4994520;28;20034;-86
2021/07/17 08:50:37;;;;;;;10.85;4.60;;;;;;;42.91;24.29;96768.06;4994283;28;20026;-86
2021/07/17 08:53:03;;;;;;;15.10;4.90;;;;;;;41.93;25.60;96764.16;4994406;28;20478;-86
2021/07/17 08:55:29;;;;;;;15.43;4.68;;;;;;;41.23;26.69;96772.00;4994129;28;20038;-85
2021/07/17 08:57:55;;;;;;;17.33;4.85;;;;;;;41.95;24.64;96765.50;4994262;28;20104;-86
2021/07/17 09:00:26;;;;;;;23.30;5.45;;;;;;;42.60;24.56;96766.03;4977848;28;20037;-85
2021/07/17 09:02:57;;;;;;;8.23;4.50;;;;;;;43.54;23.20;96762.97;4994341;28;20026;-85
2021/07/17 09:05:26;;;;;;;5.57;4.28;;;;;;;43.87;22.67;96757.00;4994192;28;20030;-85
2021/07/17 09:07:52;;;;;;;9.35;5.10;;;;;;;44.33;22.76;96767.72;4994743;28;20058;-85
2021/07/17 09:10:34;;;;;;;7.70;5.22;;;;;;;45.10;21.91;96768.53;5011826;28;20119;-86
2021/07/17 09:13:12;;;;;;;15.27;6.53;;;;;;;43.33;23.99;96756.22;4994179;28;20026;-86
2021/07/17 09:15:40;;;;;;;16.02;5.85;;;;;;;42.84;24.13;96753.59;4993794;28;20030;-86
2021/07/17 09:18:07;;;;;;;23.15;15.30;;;;;;;42.74;24.60;96754.69;4993985;28;20060;-86
2021/07/17 09:20:33;;;;;;;11.45;5.15;;;;;;;43.65;24.23;96755.06;4993846;28;20501;-86
2021/07/17 09:23:01;;;;;;;6.32;4.93;;;;;;;42.58;25.16;96753.38;4994136;28;20026;-85
2021/07/17 09:25:38;;;;;;;5.40;4.28;;;;;;;43.43;24.40;96750.34;4994117;28;20030;-85
2021/07/17 09:28:15;;;;;;;11.05;4.40;;;;;;;43.61;23.93;96754.06;4994055;28;20057;-85
2021/07/17 09:30:41;;;;;;;18.85;5.07;;;;;;;44.38;23.33;96750.63;5013655;28;20041;-85
2021/07/17 09:33:07;;;;;;;10.27;4.53;;;;;;;44.51;23.48;96758.94;4999635;28;20030;-86
2021/07/17 09:35:34;;;;;;;13.85;5.03;;;;;;;44.48;23.05;96747.47;5012343;28;20041;-84
2021/07/17 09:38:02;;;;;;;11.65;4.82;;;;;;;45.42;22.10;96755.00;4998052;28;20025;-84
2021/07/17 09:40:50;;;;;;;11.35;4.65;;;;;;;44.41;22.58;96742.31;4998203;28;20054;-88
2021/07/17 09:43:40;;;;;;;7.55;4.25;;;;;;;45.06;22.16;96741.31;4998429;28;20472;-87
2021/07/17 09:46:27;;;;;;;8.50;5.60;;;;;;;44.85;22.05;96732.69;4998317;28;20021;-87
2021/07/17 09:48:55;;;;;;;13.43;5.88;;;;;;;45.18;22.54;96733.81;4997177;28;20033;-84
2021/07/17 09:51:39;;;;;;;11.15;5.15;;;;;;;43.52;24.29;96725.00;4981228;28;20116;-84
2021/07/17 09:54:09;;;;;;;13.50;5.63;;;;;;;44.23;24.66;96729.38;4981835;28;20520;-86
2021/07/17 09:56:36;;;;;;;12.95;4.47;;;;;;;44.80;23.02;96743.31;4991511;28;20030;-90
2021/07/17 09:59:07;;;;;;;9.05;4.85;;;;;;;44.74;23.28;96734.19;4989935;28;20025;-90
2021/07/17 10:01:35;;;;;;;9.35;5.18;;;;;;;45.36;22.70;96728.09;4982356;28;20478;-90
2021/07/17 10:04:12;;;;;;;16.10;4.90;;;;;;;44.68;23.23;96742.00;4982583;28;20026;-90
2021/07/17 10:06:42;;;;;;;6.25;4.32;;;;;;;43.10;24.24;96735.72;4982693;28;20094;-90
2021/07/17 10:09:14;;;;;;;22.80;7.43;;;;;;;41.06;26.28;96738.91;4998996;28;20362;-89
2021/07/17 10:11:41;;;;;;;11.55;4.80;;;;;;;41.60;26.34;96730.53;5024159;28;20068;-89
2021/07/17 10:14:29;;;;;;;9.70;4.90;;;;;;;42.35;25.40;96743.25;4987536;28;20084;-89
2021/07/17 10:16:58;;;;;;;15.05;4.78;;;;;;;42.73;24.76;96724.06;5018214;28;20017;-89
2021/07/17 10:19:25;;;;;;;18.58;4.80;;;;;;;43.75;23.75;96735.00;5018420;28;20113;-88
2021/07/17 10:21:51;;;;;;;29.90;5.65;;;;;;;42.21;24.92;96728.41;5028058;28;20116;-89
2021/07/17 10:24:17;;;;;;;12.75;4.90;;;;;;;41.07;26.81;96741.41;4995391;28;20482;-89
2021/07/17 10:26:44;;;;;;;15.30;6.00;;;;;;;42.24;25.18;96734.22;4983646;28;20080;-89
2021/07/17 10:29:11;;;;;;;19.30;5.85;;;;;;;42.84;24.02;96719.81;5001902;28;20037;-90
2021/07/17 10:31:38;;;;;;;14.55;5.18;;;;;;;41.37;24.89;96725.97;4993126;28;20125;-88
2021/07/17 10:34:04;;;;;;;12.90;4.80;;;;;;;41.98;25.25;96735.94;4986704;28;20061;-89
2021/07/17 10:36:31;;;;;;;15.10;4.75;;;;;;;42.75;24.42;96733.00;5001465;28;20480;-90
2021/07/17 10:38:59;;;;;;;13.57;4.82;;;;;;;43.50;23.66;96725.31;4982213;28;20465;-89
2021/07/17 10:41:26;;;;;;;76.43;7.07;;;;;;;42.75;23.22;96705.69;5013507;28;20029;-89
2021/07/17 10:43:54;;;;;;;15.32;4.72;;;;;;;44.17;22.08;96703.31;5001060;28;20168;-89
2021/07/17 10:46:34;;;;;;;10.80;4.55;;;;;;;44.83;21.98;96709.59;5001033;28;20025;-90
2021/07/17 10:49:02;;;;;;;12.30;4.97;;;;;;;45.05;21.27;96702.91;5000763;28;20025;-90
2021/07/17 10:51:36;;;;;;;8.93;4.63;;;;;;;45.08;21.54;96708.72;5001037;28;20056;-89
2021/07/17 10:54:05;;;;;;;8.50;4.55;;;;;;;46.19;19.95;96706.56;4999982;28;20025;-81
2021/07/17 10:56:32;;;;;;;14.10;4.55;;;;;;;45.27;20.50;96703.50;4999843;28;20030;-82
2021/07/17 10:59:13;;;;;;;8.45;4.20;;;;;;;46.73;19.22;96696.13;5030812;28;20412;-83
2021/07/17 11:01:58;;;;;;;9.38;4.25;;;;;;;45.88;20.30;96689.94;5014069;28;20033;-86
2021/07/17 11:04:31;;;;;;;28.20;5.15;;;;;;;45.44;20.62;96690.50;5010140;28;20068;-84
2021/07/17 11:07:16;;;;;;;12.20;4.57;;;;;;;44.74;21.12;96689.00;4980410;28;20032;-89
2021/07/17 11:09:56;;;;;;;10.88;4.43;;;;;;;44.54;21.33;96681.25;5010142;28;20409;-89
2021/07/17 11:12:25;;;;;;;19.08;4.43;;;;;;;43.83;22.19;96677.03;4988206;28;20464;-91
2021/07/17 11:14:52;;;;;;;9.15;4.78;;;;;;;43.68;22.63;96672.66;4990965;28;20025;-92
2021/07/17 11:17:43;;;;;;;7.82;4.20;;;;;;;44.31;22.10;96679.72;4992341;28;20032;-92
2021/07/17 11:20:20;;;;;;;7.70;4.55;;;;;;;44.71;20.98;96658.63;4997905;28;20041;-86
2021/07/17 11:22:46;;;;;;;23.00;5.13;;;;;;;44.78;21.54;96658.94;5013379;28;20022;-82
2021/07/17 11:25:16;;;;;;;13.48;4.57;;;;;;;44.94;21.32;96660.09;5009886;28;20029;-83
2021/07/17 11:27:42;;;;;;;19.80;4.90;;;;;;;45.20;20.98;96659.97;5012392;28;20411;-82